createdAt,value
2022-09-12T00:01:10.356Z,11.65
2022-09-12T00:03:39.745Z,11.68
2022-09-12T00:06:12.952Z,11.63
2022-09-12T00:08:41.212Z,11.56
2022-09-12T00:11:13.370Z,11.49
2022-09-12T00:13:43.163Z,11.44
2022-09-12T00:16:18.619Z,11.47
2022-09-12T00:18:47.680Z,11.42
2022-09-12T00:21:16.686Z,11.57
2022-09-12T00:23:45.198Z,11.51
2022-09-12T00:26:15.646Z,11.51
2022-09-12T00:28:44.093Z,11.57
2022-09-12T00:31:15.108Z,11.48
2022-09-12T00:33:43.683Z,11.51
2022-09-12T00:36:16.222Z,11.63
2022-09-12T00:38:44.977Z,11.52
2022-09-12T00:41:18.574Z,11.39
2022-09-12T00:43:49.515Z,11.30
2022-09-12T00:46:29.030Z,11.27
2022-09-12T00:49:01.310Z,11.17
2022-09-12T00:51:32.555Z,11.10
2022-09-12T00:54:04.031Z,11.05
2022-09-12T00:56:34.095Z,11.12
2022-09-12T00:59:05.577Z,11.35
2022-09-12T01:01:34.846Z,11.20
2022-09-12T01:04:03.873Z,11.10
2022-09-12T01:06:38.008Z,11.05
2022-09-12T01:09:06.837Z,11.01
2022-09-12T01:11:39.772Z,10.99
2022-09-12T01:14:08.845Z,11.05
2022-09-12T01:16:38.574Z,11.05
2022-09-12T01:19:26.381Z,10.98
2022-09-12T01:22:12.453Z,10.93
2022-09-12T01:25:02.204Z,10.92
2022-09-12T01:27:43.107Z,10.88
2022-09-12T01:30:29.726Z,10.84
2022-09-12T01:33:45.018Z,10.78
2022-09-12T01:36:35.752Z,10.88
2022-09-12T01:39:07.257Z,10.88
2022-09-12T01:41:45.435Z,10.82
2022-09-12T01:44:20.958Z,10.78
2022-09-12T01:46:57.190Z,10.74
2022-09-12T01:49:29.774Z,10.69
2022-09-12T01:52:01.331Z,10.71
2022-09-12T01:54:37.835Z,10.82
2022-09-12T01:57:14.817Z,10.83
2022-09-12T01:59:46.620Z,10.86
2022-09-12T02:02:20.207Z,10.77
2022-09-12T02:04:55.776Z,10.73
2022-09-12T02:07:32.095Z,10.73
2022-09-12T02:10:07.193Z,10.70
2022-09-12T02:12:43.609Z,10.75
2022-09-12T02:15:16.317Z,10.72
2022-09-12T02:17:50.587Z,10.65
2022-09-12T02:20:44.353Z,10.68
2022-09-12T02:23:20.554Z,10.66
2022-09-12T02:25:52.135Z,10.64
2022-09-12T02:28:24.311Z,10.69
2022-09-12T02:31:03.753Z,10.69
2022-09-12T02:33:45.173Z,10.76
2022-09-12T02:36:24.014Z,10.67
2022-09-12T02:38:52.647Z,10.69
2022-09-12T02:41:22.504Z,10.72
2022-09-12T02:43:52.538Z,10.67
2022-09-12T02:46:27.158Z,10.65
2022-09-12T02:48:58.189Z,10.71
2022-09-12T02:51:27.878Z,10.74
2022-09-12T02:53:59.906Z,10.74
2022-09-12T02:56:31.276Z,10.70
2022-09-12T02:59:05.823Z,10.68
2022-09-12T03:02:02.021Z,10.66
2022-09-12T03:04:47.931Z,10.65
2022-09-12T03:07:26.536Z,10.72
2022-09-12T03:09:59.358Z,10.76
2022-09-12T03:12:40.242Z,10.72
2022-09-12T03:15:20.590Z,10.74
2022-09-12T03:18:02.969Z,10.75
2022-09-12T03:20:45.691Z,10.74
2022-09-12T03:23:26.591Z,10.73
2022-09-12T03:26:00.135Z,10.76
2022-09-12T03:28:29.376Z,10.69
2022-09-12T03:30:59.559Z,10.60
2022-09-12T03:33:27.953Z,10.56
2022-09-12T03:35:57.949Z,10.52
2022-09-12T03:38:25.993Z,10.58
2022-09-12T03:40:56.694Z,10.55
2022-09-12T03:43:26.550Z,10.51
2022-09-12T03:45:56.341Z,10.48
2022-09-12T03:48:26.699Z,10.52
2022-09-12T03:50:55.555Z,10.53
2022-09-12T03:53:25.347Z,10.49
2022-09-12T03:55:53.596Z,10.43
2022-09-12T03:58:21.759Z,10.48
2022-09-12T04:00:52.806Z,10.41
2022-09-12T04:03:58.091Z,10.45
2022-09-12T04:06:26.705Z,10.44
2022-09-12T04:08:56.257Z,10.45
2022-09-12T04:11:24.727Z,10.41
2022-09-12T04:13:53.079Z,10.40
2022-09-12T04:16:21.865Z,10.38
2022-09-12T04:18:50.171Z,10.36
2022-09-12T04:21:21.812Z,10.31
2022-09-12T04:23:53.564Z,10.25
2022-09-12T04:26:25.694Z,10.25
2022-09-12T04:28:56.159Z,10.30
2022-09-12T04:31:25.430Z,10.30
2022-09-12T04:33:57.249Z,10.20
2022-09-12T04:36:26.603Z,10.17
2022-09-12T04:38:55.555Z,10.18
2022-09-12T04:41:26.602Z,10.19
2022-09-12T04:43:58.490Z,10.21
2022-09-12T04:46:27.379Z,10.19
2022-09-12T04:48:56.994Z,10.22
2022-09-12T04:51:28.211Z,10.16
2022-09-12T04:53:58.190Z,10.24
2022-09-12T04:56:29.531Z,10.25
2022-09-12T04:58:59.322Z,10.32
2022-09-12T05:01:29.991Z,10.33
2022-09-12T05:03:59.981Z,10.36
2022-09-12T05:06:30.089Z,10.34
2022-09-12T05:09:01.355Z,10.39
2022-09-12T05:12:03.196Z,10.44
2022-09-12T05:14:23.880Z,10.44
2022-09-12T05:16:52.166Z,10.49
2022-09-12T05:19:20.425Z,10.55
2022-09-12T05:21:48.729Z,10.62
2022-09-12T05:24:17.152Z,10.71
2022-09-12T05:26:46.686Z,10.80
2022-09-12T05:29:15.220Z,10.89
2022-09-12T05:31:43.547Z,10.98
2022-09-12T05:34:12.711Z,11.08
2022-09-12T05:36:40.732Z,11.15
2022-09-12T05:39:08.792Z,11.28
2022-09-12T05:41:37.301Z,11.36
2022-09-12T05:44:08.670Z,11.43
2022-09-12T05:46:39.100Z,11.55
2022-09-12T05:49:09.032Z,11.65
2022-09-12T05:51:39.275Z,11.75
2022-09-12T05:54:09.256Z,11.86
2022-09-12T05:56:40.165Z,12.02
2022-09-12T05:59:13.692Z,12.16
2022-09-12T06:01:42.777Z,12.26
2022-09-12T06:04:11.169Z,12.41
2022-09-12T06:06:43.341Z,12.63
2022-09-12T06:09:13.120Z,12.82
2022-09-12T06:11:48.680Z,12.99
2022-09-12T06:14:20.138Z,13.25
2022-09-12T06:16:49.903Z,13.34
2022-09-12T06:19:19.965Z,13.59
2022-09-12T06:21:49.406Z,13.88
2022-09-12T06:24:19.125Z,14.18
2022-09-12T06:26:48.034Z,14.69
2022-09-12T06:29:19.235Z,15.06
2022-09-12T06:31:50.166Z,15.26
2022-09-12T06:34:19.532Z,15.45
2022-09-12T06:36:49.466Z,15.39
2022-09-12T06:39:19.382Z,15.44
2022-09-12T06:41:48.365Z,15.53
2022-09-12T06:44:19.284Z,15.63
2022-09-12T06:46:48.009Z,15.77
2022-09-12T06:49:17.537Z,15.94
2022-09-12T06:51:45.840Z,16.16
2022-09-12T06:54:15.330Z,16.29
2022-09-12T06:56:43.839Z,16.39
2022-09-12T06:59:12.256Z,16.69
2022-09-12T07:01:42.226Z,17.20
2022-09-12T07:04:10.573Z,17.36
2022-09-12T07:06:40.551Z,17.59
2022-09-12T07:09:12.021Z,18.22
2022-09-12T07:11:42.123Z,18.71
2022-09-12T07:14:13.837Z,19.18
2022-09-12T07:16:43.784Z,19.96
2022-09-12T07:19:12.556Z,20.77
2022-09-12T07:21:41.505Z,21.42
2022-09-12T07:24:10.819Z,21.83
2022-09-12T07:26:41.914Z,21.26
2022-09-12T07:32:05.839Z,20.21
2022-09-12T07:34:34.532Z,19.63
2022-09-12T07:37:02.637Z,19.43
2022-09-12T07:39:30.630Z,18.54
2022-09-12T07:41:58.654Z,18.09
2022-09-12T07:44:27.286Z,18.10
2022-09-12T07:46:55.371Z,17.78
2022-09-12T07:49:25.061Z,18.10
2022-09-12T07:51:53.211Z,17.96
2022-09-12T07:54:21.570Z,18.10
2022-09-12T07:56:49.820Z,18.21
2022-09-12T07:59:35.353Z,18.56
2022-09-12T08:02:06.371Z,18.22
2022-09-12T08:04:36.410Z,18.15
2022-09-12T08:07:04.523Z,18.50
2022-09-12T08:09:32.506Z,18.84
2022-09-12T08:12:00.567Z,18.93
2022-09-12T08:14:29.675Z,19.12
2022-09-12T08:16:57.741Z,19.06
2022-09-12T08:19:25.794Z,19.39
2022-09-12T08:21:55.212Z,19.34
2022-09-12T08:24:23.420Z,19.64
2022-09-12T08:26:51.628Z,19.83
2022-09-12T08:29:19.801Z,20.32
2022-09-12T08:31:48.480Z,20.54
2022-09-12T08:34:19.162Z,20.90
2022-09-12T08:36:47.272Z,21.13
2022-09-12T08:39:16.902Z,21.16
2022-09-12T08:41:46.595Z,21.12
2022-09-12T08:44:31.613Z,21.26
2022-09-12T08:47:18.614Z,21.37
2022-09-12T08:49:56.370Z,21.83
2022-09-12T08:52:28.664Z,23.89
2022-09-12T08:54:58.482Z,25.89
2022-09-12T08:57:26.671Z,27.20
2022-09-12T08:59:55.079Z,27.57
2022-09-12T09:03:02.855Z,27.12
2022-09-12T09:05:47.158Z,28.15
2022-09-12T09:08:27.312Z,29.27
2022-09-12T09:11:03.798Z,29.82
2022-09-12T09:14:05.391Z,27.52
2022-09-12T09:16:37.772Z,27.99
2022-09-12T09:19:12.981Z,27.52
2022-09-12T09:21:46.500Z,28.49
2022-09-12T09:24:18.946Z,29.35
2022-09-12T09:26:54.630Z,28.61
2022-09-12T09:29:28.067Z,30.02
2022-09-12T09:31:59.439Z,29.86
2022-09-12T09:34:31.585Z,33.09
2022-09-12T09:37:08.290Z,34.75
2022-09-12T09:39:47.964Z,35.10
2022-09-12T09:42:27.666Z,37.50
2022-09-12T09:45:00.213Z,35.32
2022-09-12T09:47:29.304Z,35.92
2022-09-12T09:49:58.034Z,32.73
2022-09-12T09:52:33.034Z,30.86
2022-09-12T09:55:02.764Z,31.02
2022-09-12T09:57:44.610Z,32.07
2022-09-12T10:00:30.502Z,33.44
2022-09-12T10:03:04.656Z,34.51
2022-09-12T10:05:37.203Z,35.94
2022-09-12T10:08:08.177Z,36.39
2022-09-12T10:10:36.770Z,37.99
2022-09-12T10:13:21.327Z,37.09
2022-09-12T10:15:59.196Z,36.45
2022-09-12T10:18:51.025Z,36.62
2022-09-12T10:21:29.558Z,38.50
2022-09-12T10:24:07.076Z,36.53
2022-09-12T10:26:38.700Z,37.27
2022-09-12T10:29:18.062Z,37.71
2022-09-12T10:31:52.282Z,37.86
2022-09-12T10:34:25.318Z,39.92
2022-09-12T10:36:59.513Z,39.93
2022-09-12T10:39:28.282Z,40.28
2022-09-12T10:41:56.416Z,39.60
2022-09-12T10:44:31.656Z,39.42
2022-09-12T10:47:01.976Z,38.26
2022-09-12T10:49:37.966Z,36.66
2022-09-12T10:52:19.006Z,37.61
2022-09-12T10:54:47.206Z,37.28
2022-09-12T10:57:37.770Z,39.62
2022-09-12T11:00:16.752Z,38.28
2022-09-12T11:03:03.718Z,38.76
2022-09-12T11:05:43.635Z,38.65
2022-09-12T11:08:27.556Z,39.75
2022-09-12T11:11:04.650Z,39.14
2022-09-12T11:13:50.992Z,40.29
2022-09-12T11:16:28.386Z,42.17
2022-09-12T11:19:07.486Z,40.08
2022-09-12T11:21:53.903Z,39.52
2022-09-12T11:24:38.218Z,37.41
2022-09-12T11:27:20.527Z,38.27
2022-09-12T11:29:56.853Z,39.79
2022-09-12T11:32:41.775Z,39.75
2022-09-12T11:35:19.026Z,39.78
2022-09-12T11:37:54.501Z,34.38
2022-09-12T11:40:31.878Z,36.69
2022-09-12T11:43:04.698Z,37.33
2022-09-12T11:45:40.472Z,39.47
2022-09-12T11:48:19.491Z,37.07
2022-09-12T11:50:47.849Z,38.33
2022-09-12T11:53:20.421Z,41.08
2022-09-12T11:55:56.004Z,43.23
2022-09-12T11:58:27.221Z,43.36
2022-09-12T12:00:59.754Z,38.77
2022-09-12T12:03:34.144Z,38.24
2022-09-12T12:06:05.752Z,38.63
2022-09-12T12:08:39.704Z,33.91
2022-09-12T12:11:09.046Z,31.63
2022-09-12T12:13:40.810Z,35.23
2022-09-12T12:16:15.042Z,37.50
2022-09-12T12:18:45.419Z,38.14
2022-09-12T12:21:39.405Z,37.75
2022-09-12T12:24:17.087Z,38.03
2022-09-12T12:26:57.325Z,39.19
2022-09-12T12:29:44.300Z,39.16
2022-09-12T12:32:26.289Z,39.19
2022-09-12T12:35:37.023Z,41.43
2022-09-12T12:38:27.135Z,37.82
2022-09-12T12:40:55.790Z,35.73
2022-09-12T12:43:32.145Z,35.52
2022-09-12T12:46:09.453Z,37.85
2022-09-12T12:49:10.683Z,37.60
2022-09-12T12:51:44.337Z,39.28
2022-09-12T12:54:33.037Z,38.58
2022-09-12T12:57:16.075Z,38.53
2022-09-12T12:59:50.034Z,36.60
2022-09-12T13:02:30.257Z,36.12
2022-09-12T13:05:01.186Z,36.15
2022-09-12T13:07:34.297Z,36.58
2022-09-12T13:10:07.282Z,33.64
2022-09-12T13:12:38.989Z,31.11
2022-09-12T13:15:40.986Z,32.07
2022-09-12T13:18:14.660Z,36.27
2022-09-12T13:20:51.133Z,36.58
2022-09-12T13:23:25.254Z,35.97
2022-09-12T13:25:56.749Z,34.18
2022-09-12T13:28:26.303Z,30.24
2022-09-12T13:31:02.955Z,30.92
2022-09-12T13:33:38.981Z,29.42
2022-09-12T13:36:41.720Z,28.64
2022-09-12T13:39:16.537Z,30.14
2022-09-12T13:42:03.741Z,32.74
2022-09-12T13:44:38.354Z,34.82
2022-09-12T13:47:06.810Z,35.00
2022-09-12T13:49:40.553Z,34.95
2022-09-12T13:52:10.989Z,33.30
2022-09-12T13:54:40.069Z,33.07
2022-09-12T13:57:28.917Z,32.84
2022-09-12T13:59:58.496Z,31.13
2022-09-12T14:02:29.102Z,32.01
2022-09-12T14:05:10.314Z,34.67
2022-09-12T14:07:55.041Z,34.62
2022-09-12T14:10:30.140Z,33.14
2022-09-12T14:13:01.550Z,32.07
2022-09-12T14:15:33.304Z,32.09
2022-09-12T14:18:03.598Z,32.57
2022-09-12T14:20:33.495Z,32.31
2022-09-12T14:23:05.329Z,32.79
2022-09-12T14:25:38.528Z,32.75
2022-09-12T14:28:14.589Z,32.05
2022-09-12T14:30:42.886Z,30.59
2022-09-12T14:33:21.938Z,30.24
2022-09-12T14:35:52.482Z,30.31
2022-09-12T14:38:25.886Z,31.18
2022-09-12T14:41:02.093Z,29.76
2022-09-12T14:43:33.746Z,29.65
2022-09-12T14:46:07.340Z,29.99
2022-09-12T14:48:39.183Z,29.83
2022-09-12T14:51:07.861Z,29.93
2022-09-12T14:53:38.151Z,29.23
2022-09-12T14:56:11.762Z,28.55
2022-09-12T14:58:42.845Z,27.45
2022-09-12T15:01:28.795Z,27.33
2022-09-12T15:03:59.704Z,26.94
2022-09-12T15:06:32.741Z,26.87
2022-09-12T15:09:08.094Z,27.00
2022-09-12T15:11:42.231Z,26.68
2022-09-12T15:14:14.135Z,26.35
2022-09-12T15:16:42.758Z,26.42
2022-09-12T15:19:10.830Z,26.16
2022-09-12T15:21:39.021Z,25.96
2022-09-12T15:24:09.071Z,26.16
2022-09-12T15:26:37.106Z,26.17
2022-09-12T15:29:05.319Z,26.00
2022-09-12T15:31:34.747Z,25.61
2022-09-12T15:34:03.738Z,25.54
2022-09-12T15:36:31.799Z,25.65
2022-09-12T15:38:59.965Z,25.28
2022-09-12T15:41:32.420Z,25.32
2022-09-12T15:44:01.178Z,25.15
2022-09-12T15:46:29.363Z,24.89
2022-09-12T15:48:58.900Z,24.95
2022-09-12T15:51:26.997Z,24.99
2022-09-12T15:53:55.228Z,24.72
2022-09-12T15:56:24.027Z,24.71
2022-09-12T15:58:59.228Z,24.77
2022-09-12T16:01:29.158Z,24.70
2022-09-12T16:03:59.075Z,24.54
2022-09-12T16:06:27.820Z,24.39
2022-09-12T16:08:56.175Z,24.25
2022-09-12T16:11:26.194Z,24.13
2022-09-12T16:13:55.326Z,24.03
2022-09-12T16:16:23.505Z,23.97
2022-09-12T16:18:51.803Z,23.88
2022-09-12T16:21:21.518Z,23.87
2022-09-12T16:23:49.962Z,23.75
2022-09-12T16:26:18.245Z,23.74
2022-09-12T16:28:46.573Z,23.74
2022-09-12T16:31:15.311Z,23.73
2022-09-12T16:33:43.490Z,23.77
2022-09-12T16:36:13.011Z,23.88
2022-09-12T16:38:43.838Z,23.95
2022-09-12T16:41:12.017Z,23.89
2022-09-12T16:43:40.633Z,23.91
2022-09-12T16:46:10.990Z,23.88
2022-09-12T16:48:45.860Z,23.82
2022-09-12T16:51:17.702Z,23.70
2022-09-12T16:53:48.262Z,23.63
2022-09-12T16:56:16.899Z,23.55
2022-09-12T16:58:45.314Z,23.40
2022-09-12T17:01:15.001Z,23.32
2022-09-12T17:03:43.911Z,23.29
2022-09-12T17:06:14.011Z,23.22
2022-09-12T17:08:43.968Z,23.15
2022-09-12T17:11:15.362Z,23.19
2022-09-12T17:14:03.834Z,23.04
2022-09-12T17:16:33.780Z,22.89
2022-09-12T17:19:02.002Z,22.78
2022-09-12T17:21:30.104Z,22.59
2022-09-12T17:23:59.119Z,22.60
2022-09-12T17:26:28.601Z,22.52
2022-09-12T17:28:56.875Z,22.38
2022-09-12T17:31:24.880Z,22.12
2022-09-12T17:33:57.164Z,21.93
2022-09-12T17:36:26.550Z,21.69
2022-09-12T17:38:55.177Z,21.52
2022-09-12T17:41:25.477Z,21.36
2022-09-12T17:43:57.281Z,21.17
2022-09-12T17:46:28.530Z,20.96
2022-09-12T17:48:58.250Z,20.74
2022-09-12T17:51:30.649Z,20.68
2022-09-12T17:54:01.050Z,20.62
2022-09-12T17:56:31.149Z,20.64
2022-09-12T17:59:01.166Z,20.44
2022-09-12T18:01:48.202Z,20.29
2022-09-12T18:04:17.263Z,20.38
2022-09-12T18:06:48.089Z,19.94
2022-09-12T18:09:18.492Z,19.70
2022-09-12T18:11:47.996Z,19.58
2022-09-12T18:14:18.415Z,19.36
2022-09-12T18:16:47.344Z,19.27
2022-09-12T18:19:15.543Z,19.18
2022-09-12T18:21:43.946Z,19.12
2022-09-12T18:24:12.585Z,19.02
2022-09-12T18:26:40.864Z,19.03
2022-09-12T18:29:09.272Z,18.86
2022-09-12T18:31:38.751Z,18.80
2022-09-12T18:34:12.528Z,19.05
2022-09-12T18:36:44.623Z,18.90
2022-09-12T18:39:14.148Z,18.73
2022-09-12T18:41:42.152Z,18.65
2022-09-12T18:44:12.537Z,18.58
2022-09-12T18:46:42.015Z,18.50
2022-09-12T18:49:10.600Z,18.59
2022-09-12T18:51:41.600Z,18.77
2022-09-12T18:54:13.713Z,18.52
2022-09-12T18:56:43.838Z,18.31
2022-09-12T18:59:14.246Z,18.24
2022-09-12T19:01:44.046Z,18.28
2022-09-12T19:04:14.978Z,18.32
2022-09-12T19:06:45.040Z,18.37
2022-09-12T19:09:15.088Z,18.24
2022-09-12T19:11:48.766Z,18.18
2022-09-12T19:14:18.412Z,18.22
2022-09-12T19:16:48.138Z,18.28
2022-09-12T19:19:16.269Z,18.33
2022-09-12T19:21:44.457Z,18.36
2022-09-12T19:24:13.567Z,18.41
2022-09-12T19:26:43.014Z,18.42
2022-09-12T19:29:14.255Z,18.39
2022-09-12T19:31:42.713Z,18.41
2022-09-12T19:34:13.412Z,18.44
2022-09-12T19:36:45.452Z,18.36
2022-09-12T19:39:15.220Z,18.35
2022-09-12T19:41:43.714Z,18.31
2022-09-12T19:44:12.031Z,18.26
2022-09-12T19:46:40.366Z,18.21
2022-09-12T19:49:08.972Z,18.22
2022-09-12T19:51:38.836Z,18.15
2022-09-12T19:54:07.763Z,18.09
2022-09-12T19:56:35.919Z,18.02
2022-09-12T19:59:04.243Z,17.94
2022-09-12T20:01:33.077Z,17.83
2022-09-12T20:04:01.309Z,17.84
2022-09-12T20:06:29.399Z,17.78
2022-09-12T20:09:00.265Z,17.93
2022-09-12T20:11:28.476Z,18.00
2022-09-12T20:13:56.481Z,17.77
2022-09-12T20:16:28.367Z,17.69
2022-09-12T20:18:58.381Z,17.60
2022-09-12T20:21:31.432Z,17.55
2022-09-12T20:24:02.816Z,17.52
2022-09-12T20:26:31.306Z,17.42
2022-09-12T20:28:59.703Z,17.42
2022-09-12T20:31:28.032Z,17.39
2022-09-12T20:33:56.787Z,17.32
2022-09-12T20:36:25.059Z,17.32
2022-09-12T20:38:56.580Z,17.34
2022-09-12T20:41:27.542Z,17.36
2022-09-12T20:43:57.177Z,17.38
2022-09-12T20:46:27.334Z,17.35
2022-09-12T20:48:55.701Z,17.30
2022-09-12T20:51:24.567Z,17.32
2022-09-12T20:53:54.492Z,17.30
2022-09-12T20:56:23.256Z,17.28
2022-09-12T20:58:53.047Z,17.27
2022-09-12T21:01:22.491Z,17.28
2022-09-12T21:03:50.690Z,17.36
2022-09-12T21:06:19.863Z,17.59
2022-09-12T21:08:49.015Z,17.62
2022-09-12T21:11:17.983Z,17.55
2022-09-12T21:13:46.214Z,17.53
2022-09-12T21:16:19.127Z,17.68
2022-09-12T21:18:47.616Z,17.58
2022-09-12T21:21:16.865Z,17.46
2022-09-12T21:23:44.940Z,17.40
2022-09-12T21:26:13.049Z,17.35
2022-09-12T21:28:41.206Z,17.25
2022-09-12T21:31:09.714Z,17.15
2022-09-12T21:33:39.184Z,17.06
2022-09-12T21:36:09.615Z,17.02
2022-09-12T21:38:38.168Z,16.94
2022-09-12T21:41:08.336Z,16.89
2022-09-12T21:43:37.206Z,16.91
2022-09-12T21:46:07.022Z,16.85
2022-09-12T21:48:35.212Z,16.77
2022-09-12T21:51:05.195Z,16.67
2022-09-12T21:53:33.380Z,16.57
2022-09-12T21:56:03.611Z,16.48
2022-09-12T21:58:32.591Z,16.43
2022-09-12T22:01:01.313Z,16.38
2022-09-12T22:03:30.674Z,16.33
2022-09-12T22:05:59.881Z,16.24
2022-09-12T22:08:30.366Z,16.16
2022-09-12T22:11:00.869Z,16.16
2022-09-12T22:13:31.363Z,16.20
2022-09-12T22:16:00.566Z,16.47
2022-09-12T22:18:28.779Z,16.54
2022-09-12T22:21:01.514Z,16.54
2022-09-12T22:23:49.297Z,16.48
2022-09-12T22:26:17.950Z,16.38
2022-09-12T22:28:47.082Z,16.30
2022-09-12T22:31:16.110Z,16.19
2022-09-12T22:33:44.776Z,16.09
2022-09-12T22:36:13.500Z,16.02
2022-09-12T22:38:43.607Z,16.00
2022-09-12T22:41:13.150Z,15.96
2022-09-12T22:43:41.416Z,15.95
2022-09-12T22:46:12.100Z,15.95
2022-09-12T22:48:41.269Z,15.93
2022-09-12T22:51:10.032Z,15.84
2022-09-12T22:53:39.098Z,15.87
2022-09-12T22:56:10.045Z,15.79
2022-09-12T22:58:38.807Z,15.76
2022-09-12T23:01:07.835Z,15.76
2022-09-12T23:03:36.973Z,15.79
2022-09-12T23:06:05.551Z,15.85
2022-09-12T23:08:36.059Z,15.88
2022-09-12T23:11:06.029Z,15.92
2022-09-12T23:13:35.620Z,15.97
2022-09-12T23:16:06.488Z,16.06
2022-09-12T23:18:36.518Z,16.15
2022-09-12T23:21:06.611Z,16.26
2022-09-12T23:23:36.191Z,16.35
2022-09-12T23:26:06.318Z,16.41
2022-09-12T23:28:36.622Z,16.55
2022-09-12T23:31:05.074Z,16.64
2022-09-12T23:33:33.629Z,16.74
2022-09-12T23:36:02.373Z,16.89
2022-09-12T23:38:31.197Z,17.05
2022-09-12T23:41:00.044Z,17.15
2022-09-12T23:43:28.890Z,17.28
2022-09-12T23:45:59.076Z,17.30
2022-09-12T23:48:27.798Z,17.29
2022-09-12T23:50:56.183Z,17.26
2022-09-12T23:53:25.023Z,17.29
2022-09-12T23:55:54.138Z,17.24
2022-09-12T23:58:22.849Z,17.20
